Frenzy — SA9057 — position and weather

sailwx.info

Track history (hours):
 
Tides and Currents Weather Stations Pressure Air Temp Water Temp Dewpoint Dewpoint Depression Visibility Wind Speed Wind Dir Waves Ship Positions

Frenzy

Last reported at 2015-Oct-27 13:29 UTC. Time now 2016-May-30 01:03 UTC.
Position N 37°01' W 007°40'.
Warning: this ship's position is months out of date.

Length 11 m.

Type: Pleasure craft. MMSI: 265610080.

Date/timePositionNaut miles runAvg speedWind from/ knotsBaromVisibWave heightAir tempDewpointWater temp
2015-Oct-27 13:29N 37°01' W 007°40'4 4.6
2015-Oct-27 12:33N 36°59' W 007°45'5 5.1
2015-Oct-27 11:33N 36°58' W 007°51'2 2.3
2015-Oct-27 10:33N 37°00' W 007°51'0 0.0
2015-Oct-27 09:13N 36°60' W 007°51'0 0.0
2015-Oct-27 08:31N 36°60' W 007°51'0 0.0
2015-Oct-27 00:04N 37°00' W 007°51'0 0.0
2015-Oct-26 23:31N 37°00' W 007°51'0 0.0
2015-Oct-26 16:32N 37°00' W 007°51'0 0.0
2015-Oct-26 15:28N 37°00' W 007°51'0 0.0
2015-Oct-26 14:31N 37°00' W 007°51'  
2015-Oct-24 08:07N 36°60' W 007°51'1 0.0
2015-Oct-23 17:22N 36°60' W 007°51'3 3.0
2015-Oct-23 16:18N 36°57' W 007°53'3 3.5
2015-Oct-23 15:32N 36°57' W 007°56'5 5.5
2015-Oct-23 14:33N 36°58' W 008°03'6 5.7
2015-Oct-23 13:33N 36°60' W 008°10'6 5.5
2015-Oct-23 12:32N 37°01' W 008°17'5 5.5
2015-Oct-23 11:33N 37°03' W 008°23'5 5.3
2015-Oct-23 10:33N 37°04' W 008°30'6 5.7
2015-Oct-23 09:32N 37°05' W 008°37'  
Track history (hours):
 
Tides and Currents Weather Stations Pressure Air Temp Water Temp Dewpoint Dewpoint Depression Visibility Wind Speed Wind Dir Waves Ship Positions

Frenzy

Last reported at 2015-Oct-27 13:29 UTC. Time now 2016-May-30 01:03 UTC.
Position N 37°01' W 007°40'.
Warning: this ship's position is months out of date.

Length 11 m.

Type: Pleasure craft. MMSI: 265610080.

Date/timePositionNaut miles runAvg speedWind from/ knotsBaromVisibWave heightAir tempDewpointWater temp
2015-Oct-27 13:29N 37°01' W 007°40'4 4.6
2015-Oct-27 12:33N 36°59' W 007°45'5 5.1
2015-Oct-27 11:33N 36°58' W 007°51'2 2.3
2015-Oct-27 10:33N 37°00' W 007°51'0 0.0
2015-Oct-27 09:13N 36°60' W 007°51'0 0.0
2015-Oct-27 08:31N 36°60' W 007°51'0 0.0
2015-Oct-27 00:04N 37°00' W 007°51'0 0.0
2015-Oct-26 23:31N 37°00' W 007°51'0 0.0
2015-Oct-26 16:32N 37°00' W 007°51'0 0.0
2015-Oct-26 15:28N 37°00' W 007°51'0 0.0
2015-Oct-26 14:31N 37°00' W 007°51'  
2015-Oct-24 08:07N 36°60' W 007°51'1 0.0
2015-Oct-23 17:22N 36°60' W 007°51'3 3.0
2015-Oct-23 16:18N 36°57' W 007°53'3 3.5
2015-Oct-23 15:32N 36°57' W 007°56'5 5.5
2015-Oct-23 14:33N 36°58' W 008°03'6 5.7
2015-Oct-23 13:33N 36°60' W 008°10'6 5.5
2015-Oct-23 12:32N 37°01' W 008°17'5 5.5
2015-Oct-23 11:33N 37°03' W 008°23'5 5.3
2015-Oct-23 10:33N 37°04' W 008°30'6 5.7
2015-Oct-23 09:32N 37°05' W 008°37'  

Dump ship's entire track history